sensor_id;sensor_type;location;lat;lon;timestamp;temperature;humidity
37268;DHT22;23154;52.542;13.362;2022-12-29T00:02:18;7.60;99.90
37268;DHT22;23154;52.542;13.362;2022-12-29T00:04:44;7.60;99.90
37268;DHT22;23154;52.542;13.362;2022-12-29T00:07:10;7.60;99.90
37268;DHT22;23154;52.542;13.362;2022-12-29T00:09:36;7.60;99.90
37268;DHT22;23154;52.542;13.362;2022-12-29T00:12:02;7.60;99.90
37268;DHT22;23154;52.542;13.362;2022-12-29T00:14:28;7.60;99.90
37268;DHT22;23154;52.542;13.362;2022-12-29T00:17:13;7.60;99.90
37268;DHT22;23154;52.542;13.362;2022-12-29T00:19:39;7.60;99.90
37268;DHT22;23154;52.542;13.362;2022-12-29T00:22:23;7.70;99.90
37268;DHT22;23154;52.542;13.362;2022-12-29T00:25:08;7.60;99.90
37268;DHT22;23154;52.542;13.362;2022-12-29T00:27:53;7.70;99.90
37268;DHT22;23154;52.542;13.362;2022-12-29T00:30:37;7.80;99.90
37268;DHT22;23154;52.542;13.362;2022-12-29T00:33:26;7.90;99.90
37268;DHT22;23154;52.542;13.362;2022-12-29T00:38:56;7.80;99.90
37268;DHT22;23154;52.542;13.362;2022-12-29T00:41:41;7.70;99.90
37268;DHT22;23154;52.542;13.362;2022-12-29T00:44:26;7.70;99.90
37268;DHT22;23154;52.542;13.362;2022-12-29T00:46:54;7.70;99.90
37268;DHT22;23154;52.542;13.362;2022-12-29T00:49:20;7.70;99.90
37268;DHT22;23154;52.542;13.362;2022-12-29T00:52:04;7.80;99.90
37268;DHT22;23154;52.542;13.362;2022-12-29T00:54:35;7.70;99.90
37268;DHT22;23154;52.542;13.362;2022-12-29T00:57:02;7.70;99.90
37268;DHT22;23154;52.542;13.362;2022-12-29T00:59:28;7.70;99.90
37268;DHT22;23154;52.542;13.362;2022-12-29T01:01:54;7.70;99.90
37268;DHT22;23154;52.542;13.362;2022-12-29T01:04:25;7.60;99.90
37268;DHT22;23154;52.542;13.362;2022-12-29T01:06:51;7.60;99.90
37268;DHT22;23154;52.542;13.362;2022-12-29T01:09:17;7.60;99.90
37268;DHT22;23154;52.542;13.362;2022-12-29T01:12:03;7.60;99.90
37268;DHT22;23154;52.542;13.362;2022-12-29T01:14:29;7.60;99.90
37268;DHT22;23154;52.542;13.362;2022-12-29T01:16:55;7.60;99.90
37268;DHT22;23154;52.542;13.362;2022-12-29T01:19:22;7.60;99.90
37268;DHT22;23154;52.542;13.362;2022-12-29T01:21:48;7.60;99.90
37268;DHT22;23154;52.542;13.362;2022-12-29T01:24:15;7.60;99.90
37268;DHT22;23154;52.542;13.362;2022-12-29T01:26:42;7.60;99.90
37268;DHT22;23154;52.542;13.362;2022-12-29T01:29:08;7.70;99.90
37268;DHT22;23154;52.542;13.362;2022-12-29T01:31:33;7.70;99.90
37268;DHT22;23154;52.542;13.362;2022-12-29T01:34:00;7.70;99.90
37268;DHT22;23154;52.542;13.362;2022-12-29T01:36:26;7.70;99.90
37268;DHT22;23154;52.542;13.362;2022-12-29T01:38:52;7.80;99.90
37268;DHT22;23154;52.542;13.362;2022-12-29T01:41:18;7.70;99.90
37268;DHT22;23154;52.542;13.362;2022-12-29T01:43:45;7.70;99.90
37268;DHT22;23154;52.542;13.362;2022-12-29T01:46:16;7.70;99.90
37268;DHT22;23154;52.542;13.362;2022-12-29T01:48:46;7.80;99.90
37268;DHT22;23154;52.542;13.362;2022-12-29T01:51:12;7.70;99.90
37268;DHT22;23154;52.542;13.362;2022-12-29T01:53:38;7.70;99.90
37268;DHT22;23154;52.542;13.362;2022-12-29T01:56:07;7.80;99.90
37268;DHT22;23154;52.542;13.362;2022-12-29T01:58:39;7.60;99.90
37268;DHT22;23154;52.542;13.362;2022-12-29T02:01:05;7.60;99.90
37268;DHT22;23154;52.542;13.362;2022-12-29T02:03:32;7.60;99.90
37268;DHT22;23154;52.542;13.362;2022-12-29T02:08:30;7.60;99.90
37268;DHT22;23154;52.542;13.362;2022-12-29T02:10:57;7.50;99.90
37268;DHT22;23154;52.542;13.362;2022-12-29T02:13:25;7.50;99.90
37268;DHT22;23154;52.542;13.362;2022-12-29T02:19:25;7.50;99.90
37268;DHT22;23154;52.542;13.362;2022-12-29T02:27:53;7.50;99.90
37268;DHT22;23154;52.542;13.362;2022-12-29T02:30:42;7.50;99.90
37268;DHT22;23154;52.542;13.362;2022-12-29T02:33:23;7.50;99.90
37268;DHT22;23154;52.542;13.362;2022-12-29T02:41:31;7.50;99.90
37268;DHT22;23154;52.542;13.362;2022-12-29T02:44:14;7.60;99.90
37268;DHT22;23154;52.542;13.362;2022-12-29T02:46:54;7.70;99.90
37268;DHT22;23154;52.542;13.362;2022-12-29T02:49:35;7.80;99.90
37268;DHT22;23154;52.542;13.362;2022-12-29T02:52:33;7.80;99.90
37268;DHT22;23154;52.542;13.362;2022-12-29T02:55:00;7.80;99.90
37268;DHT22;23154;52.542;13.362;2022-12-29T03:00:05;8.00;99.90
37268;DHT22;23154;52.542;13.362;2022-12-29T03:08:58;8.00;99.90
37268;DHT22;23154;52.542;13.362;2022-12-29T03:11:33;8.10;99.90
37268;DHT22;23154;52.542;13.362;2022-12-29T03:14:44;8.20;99.90
37268;DHT22;23154;52.542;13.362;2022-12-29T03:17:45;8.40;99.90
37268;DHT22;23154;52.542;13.362;2022-12-29T03:20:19;8.50;99.90
37268;DHT22;23154;52.542;13.362;2022-12-29T03:22:47;8.40;99.90
37268;DHT22;23154;52.542;13.362;2022-12-29T03:25:22;8.40;99.90
37268;DHT22;23154;52.542;13.362;2022-12-29T03:28:19;8.40;99.90
37268;DHT22;23154;52.542;13.362;2022-12-29T03:30:46;8.50;99.90
37268;DHT22;23154;52.542;13.362;2022-12-29T03:33:16;8.50;99.90
37268;DHT22;23154;52.542;13.362;2022-12-29T03:35:42;8.60;99.90
37268;DHT22;23154;52.542;13.362;2022-12-29T03:38:16;8.60;99.90
37268;DHT22;23154;52.542;13.362;2022-12-29T03:40:47;8.60;99.90
37268;DHT22;23154;52.542;13.362;2022-12-29T03:43:14;8.60;99.90
37268;DHT22;23154;52.542;13.362;2022-12-29T03:45:41;8.70;99.90
37268;DHT22;23154;52.542;13.362;2022-12-29T03:48:06;8.70;99.90
37268;DHT22;23154;52.542;13.362;2022-12-29T03:50:32;8.60;99.90
37268;DHT22;23154;52.542;13.362;2022-12-29T03:52:57;8.70;99.90
37268;DHT22;23154;52.542;13.362;2022-12-29T03:55:23;8.70;99.90
37268;DHT22;23154;52.542;13.362;2022-12-29T03:57:49;8.70;99.90
37268;DHT22;23154;52.542;13.362;2022-12-29T04:00:14;8.80;99.90
37268;DHT22;23154;52.542;13.362;2022-12-29T04:02:41;8.80;99.90
37268;DHT22;23154;52.542;13.362;2022-12-29T04:05:06;8.80;99.90
37268;DHT22;23154;52.542;13.362;2022-12-29T04:07:32;8.80;99.90
37268;DHT22;23154;52.542;13.362;2022-12-29T04:09:58;8.80;99.90
37268;DHT22;23154;52.542;13.362;2022-12-29T04:12:23;8.90;99.90
37268;DHT22;23154;52.542;13.362;2022-12-29T04:14:49;9.00;99.90
37268;DHT22;23154;52.542;13.362;2022-12-29T04:17:15;9.00;99.90
37268;DHT22;23154;52.542;13.362;2022-12-29T04:19:40;9.00;99.90
37268;DHT22;23154;52.542;13.362;2022-12-29T04:22:06;9.00;99.90
37268;DHT22;23154;52.542;13.362;2022-12-29T04:24:32;8.90;99.90
37268;DHT22;23154;52.542;13.362;2022-12-29T04:26:57;9.00;99.90
37268;DHT22;23154;52.542;13.362;2022-12-29T04:29:23;9.00;99.90
37268;DHT22;23154;52.542;13.362;2022-12-29T04:31:48;9.10;99.90
37268;DHT22;23154;52.542;13.362;2022-12-29T04:34:14;9.10;99.90
37268;DHT22;23154;52.542;13.362;2022-12-29T04:36:40;9.10;99.90
37268;DHT22;23154;52.542;13.362;2022-12-29T04:39:06;9.00;99.90
37268;DHT22;23154;52.542;13.362;2022-12-29T04:41:32;9.00;99.90
37268;DHT22;23154;52.542;13.362;2022-12-29T04:43:57;9.00;99.90
37268;DHT22;23154;52.542;13.362;2022-12-29T04:46:23;8.90;99.90
37268;DHT22;23154;52.542;13.362;2022-12-29T04:48:49;8.90;99.90
37268;DHT22;23154;52.542;13.362;2022-12-29T04:51:14;8.90;99.90
37268;DHT22;23154;52.542;13.362;2022-12-29T04:53:40;9.00;99.90
37268;DHT22;23154;52.542;13.362;2022-12-29T04:56:06;9.00;99.90
37268;DHT22;23154;52.542;13.362;2022-12-29T04:58:32;9.00;99.90
37268;DHT22;23154;52.542;13.362;2022-12-29T05:00:58;9.00;99.90
37268;DHT22;23154;52.542;13.362;2022-12-29T05:03:23;9.00;99.90
37268;DHT22;23154;52.542;13.362;2022-12-29T05:05:49;9.00;99.90
37268;DHT22;23154;52.542;13.362;2022-12-29T05:08:14;9.00;99.90
37268;DHT22;23154;52.542;13.362;2022-12-29T05:10:44;9.00;99.90
37268;DHT22;23154;52.542;13.362;2022-12-29T05:13:10;9.00;99.90
37268;DHT22;23154;52.542;13.362;2022-12-29T05:15:35;9.10;99.90
37268;DHT22;23154;52.542;13.362;2022-12-29T05:18:01;9.00;99.90
37268;DHT22;23154;52.542;13.362;2022-12-29T05:20:26;9.10;99.90
37268;DHT22;23154;52.542;13.362;2022-12-29T05:22:52;9.20;99.90
37268;DHT22;23154;52.542;13.362;2022-12-29T05:25:18;9.20;99.90
37268;DHT22;23154;52.542;13.362;2022-12-29T05:27:43;9.20;99.90
37268;DHT22;23154;52.542;13.362;2022-12-29T05:30:09;9.20;99.90
37268;DHT22;23154;52.542;13.362;2022-12-29T05:32:35;9.20;99.90
37268;DHT22;23154;52.542;13.362;2022-12-29T05:35:01;9.20;99.90
37268;DHT22;23154;52.542;13.362;2022-12-29T05:37:26;9.30;99.90
37268;DHT22;23154;52.542;13.362;2022-12-29T05:39:52;9.20;99.90
37268;DHT22;23154;52.542;13.362;2022-12-29T05:42:17;9.40;99.90
37268;DHT22;23154;52.542;13.362;2022-12-29T05:44:43;9.40;99.90
37268;DHT22;23154;52.542;13.362;2022-12-29T05:47:09;9.40;99.90
37268;DHT22;23154;52.542;13.362;2022-12-29T05:49:34;9.40;99.90
37268;DHT22;23154;52.542;13.362;2022-12-29T05:52:00;9.40;99.90
37268;DHT22;23154;52.542;13.362;2022-12-29T05:54:25;9.40;99.90
37268;DHT22;23154;52.542;13.362;2022-12-29T05:56:51;9.40;99.90
37268;DHT22;23154;52.542;13.362;2022-12-29T05:59:17;9.40;99.90
37268;DHT22;23154;52.542;13.362;2022-12-29T06:01:42;9.50;99.90
37268;DHT22;23154;52.542;13.362;2022-12-29T06:04:08;9.60;99.90
37268;DHT22;23154;52.542;13.362;2022-12-29T06:06:34;9.70;99.90
37268;DHT22;23154;52.542;13.362;2022-12-29T06:08:59;9.70;99.90
37268;DHT22;23154;52.542;13.362;2022-12-29T06:11:25;9.70;99.90
37268;DHT22;23154;52.542;13.362;2022-12-29T06:13:51;9.70;99.90
37268;DHT22;23154;52.542;13.362;2022-12-29T06:16:17;9.80;99.90
37268;DHT22;23154;52.542;13.362;2022-12-29T06:18:42;9.80;99.90
37268;DHT22;23154;52.542;13.362;2022-12-29T06:21:08;9.80;99.90
37268;DHT22;23154;52.542;13.362;2022-12-29T06:23:34;9.80;99.90
37268;DHT22;23154;52.542;13.362;2022-12-29T06:25:59;9.90;99.90
37268;DHT22;23154;52.542;13.362;2022-12-29T06:28:25;10.00;99.90
37268;DHT22;23154;52.542;13.362;2022-12-29T06:30:50;10.00;99.90
37268;DHT22;23154;52.542;13.362;2022-12-29T06:33:16;10.00;99.90
37268;DHT22;23154;52.542;13.362;2022-12-29T06:35:42;10.00;99.90
37268;DHT22;23154;52.542;13.362;2022-12-29T06:38:08;10.00;99.90
37268;DHT22;23154;52.542;13.362;2022-12-29T06:40:34;10.00;99.90
37268;DHT22;23154;52.542;13.362;2022-12-29T06:43:00;10.00;99.90
37268;DHT22;23154;52.542;13.362;2022-12-29T06:45:25;10.10;99.90
37268;DHT22;23154;52.542;13.362;2022-12-29T06:47:51;10.00;99.90
37268;DHT22;23154;52.542;13.362;2022-12-29T06:50:17;10.10;99.90
37268;DHT22;23154;52.542;13.362;2022-12-29T06:52:42;10.10;99.90
37268;DHT22;23154;52.542;13.362;2022-12-29T06:55:08;10.20;99.90
37268;DHT22;23154;52.542;13.362;2022-12-29T06:57:34;10.10;99.90
37268;DHT22;23154;52.542;13.362;2022-12-29T06:59:59;10.10;99.90
37268;DHT22;23154;52.542;13.362;2022-12-29T07:02:25;10.00;99.90
37268;DHT22;23154;52.542;13.362;2022-12-29T07:04:53;10.00;99.90
37268;DHT22;23154;52.542;13.362;2022-12-29T07:07:20;10.00;99.90
37268;DHT22;23154;52.542;13.362;2022-12-29T07:09:46;9.80;99.90
37268;DHT22;23154;52.542;13.362;2022-12-29T07:12:12;9.90;99.90
37268;DHT22;23154;52.542;13.362;2022-12-29T07:14:37;9.90;99.90
37268;DHT22;23154;52.542;13.362;2022-12-29T07:17:04;9.80;99.90
37268;DHT22;23154;52.542;13.362;2022-12-29T07:19:32;9.80;99.90
37268;DHT22;23154;52.542;13.362;2022-12-29T07:21:57;9.90;99.90
37268;DHT22;23154;52.542;13.362;2022-12-29T07:24:23;9.90;99.90
37268;DHT22;23154;52.542;13.362;2022-12-29T07:26:51;9.90;99.90
37268;DHT22;23154;52.542;13.362;2022-12-29T07:29:17;9.90;99.90
37268;DHT22;23154;52.542;13.362;2022-12-29T07:31:42;9.80;99.90
37268;DHT22;23154;52.542;13.362;2022-12-29T07:34:08;9.80;99.90
37268;DHT22;23154;52.542;13.362;2022-12-29T07:36:34;9.70;99.90
37268;DHT22;23154;52.542;13.362;2022-12-29T07:39:00;9.70;99.90
37268;DHT22;23154;52.542;13.362;2022-12-29T07:41:26;9.70;99.90
37268;DHT22;23154;52.542;13.362;2022-12-29T07:43:51;9.70;99.90
37268;DHT22;23154;52.542;13.362;2022-12-29T07:46:17;9.80;99.90
37268;DHT22;23154;52.542;13.362;2022-12-29T07:48:42;9.80;99.90
37268;DHT22;23154;52.542;13.362;2022-12-29T07:51:08;9.80;99.90
37268;DHT22;23154;52.542;13.362;2022-12-29T07:53:35;9.90;99.90
37268;DHT22;23154;52.542;13.362;2022-12-29T07:56:00;9.90;99.90
37268;DHT22;23154;52.542;13.362;2022-12-29T07:58:26;9.90;99.90
37268;DHT22;23154;52.542;13.362;2022-12-29T08:00:55;9.80;99.90
37268;DHT22;23154;52.542;13.362;2022-12-29T08:03:22;9.80;99.90
37268;DHT22;23154;52.542;13.362;2022-12-29T08:05:48;9.90;99.90
37268;DHT22;23154;52.542;13.362;2022-12-29T08:08:14;9.90;99.90
37268;DHT22;23154;52.542;13.362;2022-12-29T08:10:39;9.90;99.90
37268;DHT22;23154;52.542;13.362;2022-12-29T08:13:05;10.10;99.90
37268;DHT22;23154;52.542;13.362;2022-12-29T08:15:31;10.10;99.90
37268;DHT22;23154;52.542;13.362;2022-12-29T08:17:56;10.20;99.90
37268;DHT22;23154;52.542;13.362;2022-12-29T08:20:22;10.20;99.90
37268;DHT22;23154;52.542;13.362;2022-12-29T08:22:48;10.30;99.90
37268;DHT22;23154;52.542;13.362;2022-12-29T08:25:13;10.30;99.90
37268;DHT22;23154;52.542;13.362;2022-12-29T08:27:39;10.40;99.90
37268;DHT22;23154;52.542;13.362;2022-12-29T08:30:05;10.30;99.90
37268;DHT22;23154;52.542;13.362;2022-12-29T08:32:31;10.30;99.90
37268;DHT22;23154;52.542;13.362;2022-12-29T08:34:57;10.20;99.90
37268;DHT22;23154;52.542;13.362;2022-12-29T08:37:23;10.20;99.90
37268;DHT22;23154;52.542;13.362;2022-12-29T08:39:48;10.10;99.90
37268;DHT22;23154;52.542;13.362;2022-12-29T08:42:14;10.00;99.90
37268;DHT22;23154;52.542;13.362;2022-12-29T08:44:40;10.00;99.90
37268;DHT22;23154;52.542;13.362;2022-12-29T08:47:05;10.10;99.90
37268;DHT22;23154;52.542;13.362;2022-12-29T08:49:31;10.00;99.90
37268;DHT22;23154;52.542;13.362;2022-12-29T08:51:58;10.10;99.90
37268;DHT22;23154;52.542;13.362;2022-12-29T08:54:24;10.20;99.90
37268;DHT22;23154;52.542;13.362;2022-12-29T08:56:50;10.20;99.90
37268;DHT22;23154;52.542;13.362;2022-12-29T08:59:15;10.30;99.90
37268;DHT22;23154;52.542;13.362;2022-12-29T09:01:41;10.30;99.90
37268;DHT22;23154;52.542;13.362;2022-12-29T09:04:07;10.40;99.90
37268;DHT22;23154;52.542;13.362;2022-12-29T09:06:33;10.40;99.90
37268;DHT22;23154;52.542;13.362;2022-12-29T09:08:59;10.40;99.90
37268;DHT22;23154;52.542;13.362;2022-12-29T09:11:25;10.40;99.90
37268;DHT22;23154;52.542;13.362;2022-12-29T09:13:51;10.40;99.90
37268;DHT22;23154;52.542;13.362;2022-12-29T09:16:19;10.40;99.90
37268;DHT22;23154;52.542;13.362;2022-12-29T09:18:45;10.40;99.90
37268;DHT22;23154;52.542;13.362;2022-12-29T09:21:12;10.40;99.90
37268;DHT22;23154;52.542;13.362;2022-12-29T09:23:38;10.50;99.90
37268;DHT22;23154;52.542;13.362;2022-12-29T09:26:04;10.50;99.90
37268;DHT22;23154;52.542;13.362;2022-12-29T09:28:30;10.70;99.90
37268;DHT22;23154;52.542;13.362;2022-12-29T09:30:57;10.80;99.90
37268;DHT22;23154;52.542;13.362;2022-12-29T09:33:24;10.90;99.90
37268;DHT22;23154;52.542;13.362;2022-12-29T09:35:57;10.90;99.90
37268;DHT22;23154;52.542;13.362;2022-12-29T09:38:24;10.90;99.90
37268;DHT22;23154;52.542;13.362;2022-12-29T09:41:06;11.00;99.90
37268;DHT22;23154;52.542;13.362;2022-12-29T09:43:50;11.00;99.90
37268;DHT22;23154;52.542;13.362;2022-12-29T09:46:29;11.00;99.90
37268;DHT22;23154;52.542;13.362;2022-12-29T09:51:53;11.10;99.90
37268;DHT22;23154;52.542;13.362;2022-12-29T09:54:32;11.20;99.90
37268;DHT22;23154;52.542;13.362;2022-12-29T09:56:59;11.20;99.90
37268;DHT22;23154;52.542;13.362;2022-12-29T09:59:38;11.20;99.90
37268;DHT22;23154;52.542;13.362;2022-12-29T10:04:57;11.30;99.90
37268;DHT22;23154;52.542;13.362;2022-12-29T10:07:26;11.40;99.90
37268;DHT22;23154;52.542;13.362;2022-12-29T10:16:01;11.20;99.90
37268;DHT22;23154;52.542;13.362;2022-12-29T10:18:42;11.20;99.90
37268;DHT22;23154;52.542;13.362;2022-12-29T10:23:44;11.30;99.90
37268;DHT22;23154;52.542;13.362;2022-12-29T10:26:14;11.40;99.90
37268;DHT22;23154;52.542;13.362;2022-12-29T10:31:23;11.60;99.90
37268;DHT22;23154;52.542;13.362;2022-12-29T10:33:53;11.70;99.90
37268;DHT22;23154;52.542;13.362;2022-12-29T10:41:46;12.20;99.90
37268;DHT22;23154;52.542;13.362;2022-12-29T10:44:16;12.30;99.90
37268;DHT22;23154;52.542;13.362;2022-12-29T10:46:43;12.40;99.90
37268;DHT22;23154;52.542;13.362;2022-12-29T10:49:17;12.50;99.90
37268;DHT22;23154;52.542;13.362;2022-12-29T10:51:46;12.50;99.90
37268;DHT22;23154;52.542;13.362;2022-12-29T10:56:50;12.40;99.90
37268;DHT22;23154;52.542;13.362;2022-12-29T10:59:23;12.40;99.90
37268;DHT22;23154;52.542;13.362;2022-12-29T11:07:27;12.40;99.90
37268;DHT22;23154;52.542;13.362;2022-12-29T11:09:54;12.40;99.90
37268;DHT22;23154;52.542;13.362;2022-12-29T11:12:21;12.40;99.90
37268;DHT22;23154;52.542;13.362;2022-12-29T11:14:48;12.40;99.90
37268;DHT22;23154;52.542;13.362;2022-12-29T11:17:25;12.40;99.90
37268;DHT22;23154;52.542;13.362;2022-12-29T11:19:51;12.40;99.90
37268;DHT22;23154;52.542;13.362;2022-12-29T11:22:26;12.40;99.90
37268;DHT22;23154;52.542;13.362;2022-12-29T11:24:54;12.40;99.90
37268;DHT22;23154;52.542;13.362;2022-12-29T11:27:23;12.40;99.90
37268;DHT22;23154;52.542;13.362;2022-12-29T11:29:52;12.30;99.90
37268;DHT22;23154;52.542;13.362;2022-12-29T11:32:22;12.40;99.90
37268;DHT22;23154;52.542;13.362;2022-12-29T11:34:48;12.30;99.90
37268;DHT22;23154;52.542;13.362;2022-12-29T11:37:27;12.30;99.90
37268;DHT22;23154;52.542;13.362;2022-12-29T11:40:03;12.30;99.90
37268;DHT22;23154;52.542;13.362;2022-12-29T11:42:39;12.20;99.90
37268;DHT22;23154;52.542;13.362;2022-12-29T11:45:14;12.20;99.90
37268;DHT22;23154;52.542;13.362;2022-12-29T11:47:47;12.20;99.90
37268;DHT22;23154;52.542;13.362;2022-12-29T11:50:20;12.10;99.90
37268;DHT22;23154;52.542;13.362;2022-12-29T11:52:48;12.00;99.90
37268;DHT22;23154;52.542;13.362;2022-12-29T11:55:20;12.00;99.90
37268;DHT22;23154;52.542;13.362;2022-12-29T11:57:47;11.90;99.90
37268;DHT22;23154;52.542;13.362;2022-12-29T12:00:18;11.90;99.90
37268;DHT22;23154;52.542;13.362;2022-12-29T12:05:39;11.80;99.90
37268;DHT22;23154;52.542;13.362;2022-12-29T12:08:22;11.60;99.90
37268;DHT22;23154;52.542;13.362;2022-12-29T12:16:28;11.00;99.90
37268;DHT22;23154;52.542;13.362;2022-12-29T12:19:04;10.90;99.90
37268;DHT22;23154;52.542;13.362;2022-12-29T12:21:38;10.80;99.90
37268;DHT22;23154;52.542;13.362;2022-12-29T12:27:17;10.60;99.90
37268;DHT22;23154;52.542;13.362;2022-12-29T12:30:01;10.60;99.90
37268;DHT22;23154;52.542;13.362;2022-12-29T12:35:13;10.60;99.90
37268;DHT22;23154;52.542;13.362;2022-12-29T12:38:10;10.50;99.90
37268;DHT22;23154;52.542;13.362;2022-12-29T12:57:15;10.40;99.90
37268;DHT22;23154;52.542;13.362;2022-12-29T13:26:45;10.40;99.90
37268;DHT22;23154;52.542;13.362;2022-12-29T13:29:20;10.40;99.90
37268;DHT22;23154;52.542;13.362;2022-12-29T13:31:53;10.40;99.90
37268;DHT22;23154;52.542;13.362;2022-12-29T13:36:54;10.30;99.90
37268;DHT22;23154;52.542;13.362;2022-12-29T13:39:25;10.30;99.90
37268;DHT22;23154;52.542;13.362;2022-12-29T13:41:55;10.30;99.90
37268;DHT22;23154;52.542;13.362;2022-12-29T13:44:28;10.40;99.90
37268;DHT22;23154;52.542;13.362;2022-12-29T13:46:56;10.40;99.90
37268;DHT22;23154;52.542;13.362;2022-12-29T13:49:24;10.30;99.90
37268;DHT22;23154;52.542;13.362;2022-12-29T13:52:14;10.40;99.90
37268;DHT22;23154;52.542;13.362;2022-12-29T13:58:05;10.40;99.90
37268;DHT22;23154;52.542;13.362;2022-12-29T14:06:27;10.40;99.90
37268;DHT22;23154;52.542;13.362;2022-12-29T14:08:59;10.30;99.90
37268;DHT22;23154;52.542;13.362;2022-12-29T14:11:38;10.30;99.90
37268;DHT22;23154;52.542;13.362;2022-12-29T14:14:20;10.20;99.90
37268;DHT22;23154;52.542;13.362;2022-12-29T14:16:47;10.10;99.90
37268;DHT22;23154;52.542;13.362;2022-12-29T14:19:19;10.10;99.90
37268;DHT22;23154;52.542;13.362;2022-12-29T14:21:56;10.10;99.90
37268;DHT22;23154;52.542;13.362;2022-12-29T14:27:01;10.00;99.90
37268;DHT22;23154;52.542;13.362;2022-12-29T14:29:48;9.90;99.90
37268;DHT22;23154;52.542;13.362;2022-12-29T14:37:28;10.00;99.90
37268;DHT22;23154;52.542;13.362;2022-12-29T14:40:14;10.00;99.90
37268;DHT22;23154;52.542;13.362;2022-12-29T14:42:45;10.00;99.90
37268;DHT22;23154;52.542;13.362;2022-12-29T14:47:43;10.10;99.90
37268;DHT22;23154;52.542;13.362;2022-12-29T14:53:00;10.10;99.90
37268;DHT22;23154;52.542;13.362;2022-12-29T14:55:59;10.10;99.90
37268;DHT22;23154;52.542;13.362;2022-12-29T14:58:37;10.10;99.90
37268;DHT22;23154;52.542;13.362;2022-12-29T15:01:04;10.10;99.90
37268;DHT22;23154;52.542;13.362;2022-12-29T15:03:47;10.10;99.90
37268;DHT22;23154;52.542;13.362;2022-12-29T15:06:17;10.10;99.90
37268;DHT22;23154;52.542;13.362;2022-12-29T15:09:00;10.10;99.90
37268;DHT22;23154;52.542;13.362;2022-12-29T15:14:29;10.20;99.90
37268;DHT22;23154;52.542;13.362;2022-12-29T15:16:55;10.50;99.90
37268;DHT22;23154;52.542;13.362;2022-12-29T15:19:22;10.60;99.90
37268;DHT22;23154;52.542;13.362;2022-12-29T15:21:48;10.70;99.90
37268;DHT22;23154;52.542;13.362;2022-12-29T15:24:14;10.60;99.90
37268;DHT22;23154;52.542;13.362;2022-12-29T15:26:42;10.50;99.90
37268;DHT22;23154;52.542;13.362;2022-12-29T15:29:38;10.30;99.90
37268;DHT22;23154;52.542;13.362;2022-12-29T15:34:47;9.90;99.90
37268;DHT22;23154;52.542;13.362;2022-12-29T15:37:25;9.80;99.90
37268;DHT22;23154;52.542;13.362;2022-12-29T15:39:53;9.80;99.90
37268;DHT22;23154;52.542;13.362;2022-12-29T15:45:16;9.70;99.90
37268;DHT22;23154;52.542;13.362;2022-12-29T15:47:44;9.60;99.90
37268;DHT22;23154;52.542;13.362;2022-12-29T15:52:52;9.40;99.90
37268;DHT22;23154;52.542;13.362;2022-12-29T15:55:29;9.40;99.90
37268;DHT22;23154;52.542;13.362;2022-12-29T15:58:02;9.40;99.90
37268;DHT22;23154;52.542;13.362;2022-12-29T16:00:31;9.50;99.90
37268;DHT22;23154;52.542;13.362;2022-12-29T16:02:59;9.50;99.90
37268;DHT22;23154;52.542;13.362;2022-12-29T16:05:35;9.50;99.90
37268;DHT22;23154;52.542;13.362;2022-12-29T16:08:02;9.60;99.90
37268;DHT22;23154;52.542;13.362;2022-12-29T16:15:46;9.70;99.90
37268;DHT22;23154;52.542;13.362;2022-12-29T16:18:38;9.80;99.90
37268;DHT22;23154;52.542;13.362;2022-12-29T16:21:06;9.80;99.90
37268;DHT22;23154;52.542;13.362;2022-12-29T16:23:39;9.80;99.90
37268;DHT22;23154;52.542;13.362;2022-12-29T16:26:17;9.70;99.90
37268;DHT22;23154;52.542;13.362;2022-12-29T16:28:43;9.60;99.90
37268;DHT22;23154;52.542;13.362;2022-12-29T16:31:24;9.50;99.90
37268;DHT22;23154;52.542;13.362;2022-12-29T16:33:54;9.50;99.90
37268;DHT22;23154;52.542;13.362;2022-12-29T16:39:21;9.60;99.90
37268;DHT22;23154;52.542;13.362;2022-12-29T16:41:49;9.60;99.90
37268;DHT22;23154;52.542;13.362;2022-12-29T16:49:25;9.70;99.90
37268;DHT22;23154;52.542;13.362;2022-12-29T16:51:52;9.80;99.90
37268;DHT22;23154;52.542;13.362;2022-12-29T16:54:24;10.00;99.90
37268;DHT22;23154;52.542;13.362;2022-12-29T16:56:50;10.10;99.90
37268;DHT22;23154;52.542;13.362;2022-12-29T16:59:28;10.10;99.90
37268;DHT22;23154;52.542;13.362;2022-12-29T17:01:57;10.20;99.90
37268;DHT22;23154;52.542;13.362;2022-12-29T17:04:24;10.10;99.90
37268;DHT22;23154;52.542;13.362;2022-12-29T17:06:50;10.10;99.90
37268;DHT22;23154;52.542;13.362;2022-12-29T17:09:21;10.10;99.90
37268;DHT22;23154;52.542;13.362;2022-12-29T17:11:52;10.10;99.90
37268;DHT22;23154;52.542;13.362;2022-12-29T17:16:52;10.20;99.90
37268;DHT22;23154;52.542;13.362;2022-12-29T17:19:22;10.20;99.90
37268;DHT22;23154;52.542;13.362;2022-12-29T17:21:49;10.30;99.90
37268;DHT22;23154;52.542;13.362;2022-12-29T17:24:17;10.30;99.90
37268;DHT22;23154;52.542;13.362;2022-12-29T17:26:47;10.30;99.90
37268;DHT22;23154;52.542;13.362;2022-12-29T17:29:26;10.50;99.90
37268;DHT22;23154;52.542;13.362;2022-12-29T17:31:54;10.50;99.90
37268;DHT22;23154;52.542;13.362;2022-12-29T17:34:20;10.40;99.90
37268;DHT22;23154;52.542;13.362;2022-12-29T17:36:45;10.50;99.90
37268;DHT22;23154;52.542;13.362;2022-12-29T17:39:11;10.50;99.90
37268;DHT22;23154;52.542;13.362;2022-12-29T17:41:37;10.50;99.90
37268;DHT22;23154;52.542;13.362;2022-12-29T17:44:04;10.50;99.90
37268;DHT22;23154;52.542;13.362;2022-12-29T17:46:30;10.50;99.90
37268;DHT22;23154;52.542;13.362;2022-12-29T17:48:56;10.50;99.90
37268;DHT22;23154;52.542;13.362;2022-12-29T17:51:22;10.50;99.90
37268;DHT22;23154;52.542;13.362;2022-12-29T17:53:48;10.40;99.90
37268;DHT22;23154;52.542;13.362;2022-12-29T17:56:14;10.50;99.90
37268;DHT22;23154;52.542;13.362;2022-12-29T17:58:40;10.30;99.90
37268;DHT22;23154;52.542;13.362;2022-12-29T18:01:06;10.20;99.90
37268;DHT22;23154;52.542;13.362;2022-12-29T18:03:34;10.20;99.90
37268;DHT22;23154;52.542;13.362;2022-12-29T18:06:01;10.00;99.90
37268;DHT22;23154;52.542;13.362;2022-12-29T18:08:27;9.90;99.90
37268;DHT22;23154;52.542;13.362;2022-12-29T18:10:54;9.90;99.90
37268;DHT22;23154;52.542;13.362;2022-12-29T18:13:23;9.90;99.90
37268;DHT22;23154;52.542;13.362;2022-12-29T18:15:51;9.90;99.90
37268;DHT22;23154;52.542;13.362;2022-12-29T18:18:19;9.90;99.90
37268;DHT22;23154;52.542;13.362;2022-12-29T18:20:46;9.80;99.90
37268;DHT22;23154;52.542;13.362;2022-12-29T18:23:24;9.70;99.90
37268;DHT22;23154;52.542;13.362;2022-12-29T18:25:59;9.60;99.90
37268;DHT22;23154;52.542;13.362;2022-12-29T18:28:26;9.60;99.90
37268;DHT22;23154;52.542;13.362;2022-12-29T18:30:54;9.60;99.90